sensor_id;sensor_type;location;lat;lon;timestamp;pressure;altitude;pressure_sealevel;temperature;humidity
48624;BME280;75490;45.802;16.114;2024-02-14T00:00:19;63920.66;;;1.13;100.00
48624;BME280;75490;45.802;16.114;2024-02-14T00:02:47;63949.97;;;1.35;100.00
48624;BME280;75490;45.802;16.114;2024-02-14T00:05:17;63947.94;;;1.43;100.00
48624;BME280;75490;45.802;16.114;2024-02-14T00:07:44;63957.53;;;1.53;100.00
48624;BME280;75490;45.802;16.114;2024-02-14T00:10:11;63960.72;;;1.53;100.00
48624;BME280;75490;45.802;16.114;2024-02-14T00:12:38;63982.59;;;1.71;100.00
48624;BME280;75490;45.802;16.114;2024-02-14T00:15:05;63990.09;;;1.81;100.00
48624;BME280;75490;45.802;16.114;2024-02-14T00:17:34;63981.03;;;1.72;100.00
48624;BME280;75490;45.802;16.114;2024-02-14T00:20:02;63978.88;;;1.70;100.00
48624;BME280;75490;45.802;16.114;2024-02-14T00:22:30;63971.97;;;1.66;100.00
48624;BME280;75490;45.802;16.114;2024-02-14T00:24:57;63976.16;;;1.63;100.00
48624;BME280;75490;45.802;16.114;2024-02-14T00:27:24;63964.50;;;1.59;100.00
48624;BME280;75490;45.802;16.114;2024-02-14T00:29:54;63967.63;;;1.55;100.00
48624;BME280;75490;45.802;16.114;2024-02-14T00:32:21;63966.06;;;1.58;100.00
48624;BME280;75490;45.802;16.114;2024-02-14T00:34:47;63961.78;;;1.54;100.00
48624;BME280;75490;45.802;16.114;2024-02-14T00:37:16;63956.44;;;1.47;100.00
48624;BME280;75490;45.802;16.114;2024-02-14T00:39:43;63940.44;;;1.34;100.00
48624;BME280;75490;45.802;16.114;2024-02-14T00:42:10;63918.59;;;1.16;100.00
48624;BME280;75490;45.802;16.114;2024-02-14T00:44:37;63902.00;;;0.97;100.00
48624;BME280;75490;45.802;16.114;2024-02-14T00:47:04;63900.91;;;0.91;100.00
48624;BME280;75490;45.802;16.114;2024-02-14T00:49:34;63889.72;;;0.83;100.00
48624;BME280;75490;45.802;16.114;2024-02-14T00:52:01;63879.09;;;0.78;100.00
48624;BME280;75490;45.802;16.114;2024-02-14T00:54:28;63864.16;;;0.64;100.00
48624;BME280;75490;45.802;16.114;2024-02-14T00:56:58;63869.97;;;0.64;100.00
48624;BME280;75490;45.802;16.114;2024-02-14T00:59:25;63855.59;;;0.53;100.00
48624;BME280;75490;45.802;16.114;2024-02-14T01:01:52;63847.47;;;0.35;100.00
48624;BME280;75490;45.802;16.114;2024-02-14T01:04:19;63839.56;;;0.35;100.00
48624;BME280;75490;45.802;16.114;2024-02-14T01:06:45;63841.16;;;0.34;100.00
48624;BME280;75490;45.802;16.114;2024-02-14T01:09:12;63830.53;;;0.29;100.00
48624;BME280;75490;45.802;16.114;2024-02-14T01:11:39;63827.31;;;0.24;100.00
48624;BME280;75490;45.802;16.114;2024-02-14T01:14:06;63816.13;;;0.13;100.00
48624;BME280;75490;45.802;16.114;2024-02-14T01:16:34;63825.66;;;0.17;100.00
48624;BME280;75490;45.802;16.114;2024-02-14T01:19:00;63817.16;;;0.14;100.00
48624;BME280;75490;45.802;16.114;2024-02-14T01:21:27;63821.94;;;0.16;100.00
48624;BME280;75490;45.802;16.114;2024-02-14T01:23:54;63817.16;;;0.14;100.00
48624;BME280;75490;45.802;16.114;2024-02-14T01:26:21;63819.31;;;0.16;100.00
48624;BME280;75490;45.802;16.114;2024-02-14T01:28:47;63820.91;;;0.18;100.00
48624;BME280;75490;45.802;16.114;2024-02-14T01:31:15;63824.06;;;0.18;100.00
48624;BME280;75490;45.802;16.114;2024-02-14T01:33:42;63826.22;;;0.20;100.00
48624;BME280;75490;45.802;16.114;2024-02-14T01:36:08;63830.47;;;0.24;100.00
48624;BME280;75490;45.802;16.114;2024-02-14T01:38:35;63834.22;;;0.30;100.00
48624;BME280;75490;45.802;16.114;2024-02-14T01:41:03;63833.16;;;0.29;100.00
48624;BME280;75490;45.802;16.114;2024-02-14T01:43:30;63832.63;;;0.26;100.00
48624;BME280;75490;45.802;16.114;2024-02-14T01:46:05;63830.97;;;0.22;100.00
48624;BME280;75490;45.802;16.114;2024-02-14T01:48:35;63826.22;;;0.20;100.00
48624;BME280;75490;45.802;16.114;2024-02-14T01:51:03;63823.56;;;0.20;100.00
48624;BME280;75490;45.802;16.114;2024-02-14T01:53:31;63817.78;;;0.22;100.00
48624;BME280;75490;45.802;16.114;2024-02-14T01:55:59;63828.84;;;0.20;100.00
48624;BME280;75490;45.802;16.114;2024-02-14T01:58:30;63824.06;;;0.18;100.00
48624;BME280;75490;45.802;16.114;2024-02-14T02:00:57;63812.94;;;0.13;100.00
48624;BME280;75490;45.802;16.114;2024-02-14T02:03:25;63816.63;;;0.14;100.00
48624;BME280;75490;45.802;16.114;2024-02-14T02:05:52;63816.63;;;0.14;100.00
48624;BME280;75490;45.802;16.114;2024-02-14T02:08:21;63818.75;;;0.13;100.00
48624;BME280;75490;45.802;16.114;2024-02-14T02:10:47;63809.78;;;0.12;100.00
48624;BME280;75490;45.802;16.114;2024-02-14T02:13:14;63820.38;;;0.17;100.00
48624;BME280;75490;45.802;16.114;2024-02-14T02:15:42;63820.38;;;0.17;100.00
48624;BME280;75490;45.802;16.114;2024-02-14T02:18:12;63816.13;;;0.13;100.00
48624;BME280;75490;45.802;16.114;2024-02-14T02:20:39;63814.47;;;0.09;100.00
48624;BME280;75490;45.802;16.114;2024-02-14T02:23:13;63808.09;;;0.06;100.00
48624;BME280;75490;45.802;16.114;2024-02-14T02:25:43;63814.47;;;0.09;100.00
48624;BME280;75490;45.802;16.114;2024-02-14T02:28:10;63810.31;;;0.13;100.00
48624;BME280;75490;45.802;16.114;2024-02-14T02:30:37;63815.09;;;0.17;100.00
48624;BME280;75490;45.802;16.114;2024-02-14T02:33:04;63825.09;;;0.17;100.00
48624;BME280;75490;45.802;16.114;2024-02-14T02:35:31;63828.91;;;0.25;100.00
48624;BME280;75490;45.802;16.114;2024-02-14T02:37:58;63835.31;;;0.31;100.00
48624;BME280;75490;45.802;16.114;2024-02-14T02:40:25;63841.72;;;0.38;100.00
48624;BME280;75490;45.802;16.114;2024-02-14T02:42:54;63841.22;;;0.40;100.00
48624;BME280;75490;45.802;16.114;2024-02-14T02:45:21;63841.16;;;0.34;100.00
48624;BME280;75490;45.802;16.114;2024-02-14T02:47:48;63843.78;;;0.34;100.00
48624;BME280;75490;45.802;16.114;2024-02-14T02:50:18;63831.03;;;0.27;100.00
48624;BME280;75490;45.802;16.114;2024-02-14T02:52:46;63800.66;;;-0.02;100.00
48624;BME280;75490;45.802;16.114;2024-02-14T02:55:12;63785.75;;;-0.13;100.00
48624;BME280;75490;45.802;16.114;2024-02-14T02:57:41;63787.25;;;-0.19;100.00
48624;BME280;75490;45.802;16.114;2024-02-14T03:00:08;63782.50;;;-0.21;100.00
48624;BME280;75490;45.802;16.114;2024-02-14T03:02:35;63771.91;;;-0.24;100.00
48624;BME280;75490;45.802;16.114;2024-02-14T03:05:08;63776.66;;;-0.24;100.00
48624;BME280;75490;45.802;16.114;2024-02-14T03:07:36;63773.47;;;-0.27;100.00
48624;BME280;75490;45.802;16.114;2024-02-14T03:10:04;63771.34;;;-0.29;100.00
48624;BME280;75490;45.802;16.114;2024-02-14T03:12:31;63773.47;;;-0.27;100.00
48624;BME280;75490;45.802;16.114;2024-02-14T03:14:59;63777.72;;;-0.23;100.00
48624;BME280;75490;45.802;16.114;2024-02-14T03:17:26;63766.06;;;-0.29;100.00
48624;BME280;75490;45.802;16.114;2024-02-14T03:19:55;63774.47;;;-0.31;100.00
48624;BME280;75490;45.802;16.114;2024-02-14T03:22:23;63773.47;;;-0.27;100.00
48624;BME280;75490;45.802;16.114;2024-02-14T03:24:50;63769.19;;;-0.31;100.00
48624;BME280;75490;45.802;16.114;2024-02-14T03:27:17;63771.34;;;-0.29;100.00
48624;BME280;75490;45.802;16.114;2024-02-14T03:29:44;63769.22;;;-0.29;100.00
48624;BME280;75490;45.802;16.114;2024-02-14T03:32:11;63770.31;;;-0.28;100.00
48624;BME280;75490;45.802;16.114;2024-02-14T03:34:38;63777.72;;;-0.23;100.00
48624;BME280;75490;45.802;16.114;2024-02-14T03:37:05;63778.22;;;-0.25;100.00
48624;BME280;75490;45.802;16.114;2024-02-14T03:39:33;63776.16;;;-0.22;100.00
48624;BME280;75490;45.802;16.114;2024-02-14T03:42:00;63777.19;;;-0.24;100.00
48624;BME280;75490;45.802;16.114;2024-02-14T03:44:29;63785.66;;;-0.21;100.00
48624;BME280;75490;45.802;16.114;2024-02-14T03:46:55;63777.72;;;-0.23;100.00
48624;BME280;75490;45.802;16.114;2024-02-14T03:49:22;63779.84;;;-0.21;100.00
48624;BME280;75490;45.802;16.114;2024-02-14T03:51:49;63777.69;;;-0.26;100.00
48624;BME280;75490;45.802;16.114;2024-02-14T03:54:19;63773.47;;;-0.27;100.00
48624;BME280;75490;45.802;16.114;2024-02-14T03:56:46;63768.13;;;-0.32;100.00
48624;BME280;75490;45.802;16.114;2024-02-14T03:59:14;63762.81;;;-0.35;100.00
48624;BME280;75490;45.802;16.114;2024-02-14T04:01:44;63763.88;;;-0.37;100.00
48624;BME280;75490;45.802;16.114;2024-02-14T04:04:14;63770.19;;;-0.36;100.00
48624;BME280;75490;45.802;16.114;2024-02-14T04:06:42;63767.59;;;-0.33;100.00
48624;BME280;75490;45.802;16.114;2024-02-14T04:09:10;63764.94;;;-0.36;100.00
48624;BME280;75490;45.802;16.114;2024-02-14T04:11:37;63766.00;;;-0.34;100.00
48624;BME280;75490;45.802;16.114;2024-02-14T04:14:03;63754.31;;;-0.41;100.00
48624;BME280;75490;45.802;16.114;2024-02-14T04:16:30;63751.16;;;-0.44;100.00
48624;BME280;75490;45.802;16.114;2024-02-14T04:18:58;63753.78;;;-0.44;100.00
48624;BME280;75490;45.802;16.114;2024-02-14T04:21:26;63752.63;;;-0.50;100.00
48624;BME280;75490;45.802;16.114;2024-02-14T04:23:53;63748.38;;;-0.54;100.00
48624;BME280;75490;45.802;16.114;2024-02-14T04:26:21;63745.75;;;-0.54;100.00
48624;BME280;75490;45.802;16.114;2024-02-14T04:28:48;63746.78;;;-0.55;100.00
48624;BME280;75490;45.802;16.114;2024-02-14T04:31:14;63741.50;;;-0.58;100.00
48624;BME280;75490;45.802;16.114;2024-02-14T04:33:42;63739.94;;;-0.57;100.00
48624;BME280;75490;45.802;16.114;2024-02-14T04:36:09;63736.22;;;-0.58;100.00
48624;BME280;75490;45.802;16.114;2024-02-14T04:38:38;63744.69;;;-0.55;100.00
48624;BME280;75490;45.802;16.114;2024-02-14T04:41:04;63740.34;;;-0.64;100.00
48624;BME280;75490;45.802;16.114;2024-02-14T04:43:31;63733.47;;;-0.65;100.00
48624;BME280;75490;45.802;16.114;2024-02-14T04:45:58;63734.06;;;-0.62;100.00
48624;BME280;75490;45.802;16.114;2024-02-14T04:48:25;63741.41;;;-0.63;100.00
48624;BME280;75490;45.802;16.114;2024-02-14T04:50:52;63736.13;;;-0.65;100.00
48624;BME280;75490;45.802;16.114;2024-02-14T04:53:19;63733.53;;;-0.63;100.00
48624;BME280;75490;45.802;16.114;2024-02-14T04:55:46;63736.09;;;-0.68;100.00
48624;BME280;75490;45.802;16.114;2024-02-14T04:58:13;63729.78;;;-0.69;100.00
48624;BME280;75490;45.802;16.114;2024-02-14T05:00:40;63722.81;;;-0.78;100.00
48624;BME280;75490;45.802;16.114;2024-02-14T05:03:07;63717.53;;;-0.78;100.00
48624;BME280;75490;45.802;16.114;2024-02-14T05:05:34;63721.81;;;-0.74;100.00
48624;BME280;75490;45.802;16.114;2024-02-14T05:08:01;63722.75;;;-0.83;100.00
48624;BME280;75490;45.802;16.114;2024-02-14T05:10:29;63702.13;;;-0.90;100.00
48624;BME280;75490;45.802;16.114;2024-02-14T05:12:55;63699.38;;;-1.00;100.00
48624;BME280;75490;45.802;16.114;2024-02-14T05:15:22;63701.00;;;-0.96;100.00
48624;BME280;75490;45.802;16.114;2024-02-14T05:17:49;63698.34;;;-0.99;100.00
48624;BME280;75490;45.802;16.114;2024-02-14T05:20:16;63696.78;;;-0.95;100.00
48624;BME280;75490;45.802;16.114;2024-02-14T05:22:43;63712.66;;;-0.90;100.00
48624;BME280;75490;45.802;16.114;2024-02-14T05:25:10;63704.19;;;-0.93;100.00
48624;BME280;75490;45.802;16.114;2024-02-14T05:27:37;63701.00;;;-0.96;100.00
48624;BME280;75490;45.802;16.114;2024-02-14T05:30:05;63699.94;;;-0.97;100.00
48624;BME280;75490;45.802;16.114;2024-02-14T05:32:32;63701.50;;;-0.98;100.00
48624;BME280;75490;45.802;16.114;2024-02-14T05:34:59;63695.66;;;-1.01;100.00
48624;BME280;75490;45.802;16.114;2024-02-14T05:37:26;63693.00;;;-1.04;100.00
48624;BME280;75490;45.802;16.114;2024-02-14T05:39:55;63699.88;;;-1.02;100.00
48624;BME280;75490;45.802;16.114;2024-02-14T05:42:22;63702.56;;;-0.97;100.00
48624;BME280;75490;45.802;16.114;2024-02-14T05:44:49;63705.75;;;-0.94;100.00
48624;BME280;75490;45.802;16.114;2024-02-14T05:47:18;63698.34;;;-0.99;100.00
48624;BME280;75490;45.802;16.114;2024-02-14T05:49:45;63707.31;;;-0.95;100.00
48624;BME280;75490;45.802;16.114;2024-02-14T05:52:12;63698.31;;;-1.01;100.00
48624;BME280;75490;45.802;16.114;2024-02-14T05:54:42;63691.97;;;-1.02;100.00
48624;BME280;75490;45.802;16.114;2024-02-14T05:57:09;63698.81;;;-1.03;100.00
48624;BME280;75490;45.802;16.114;2024-02-14T05:59:36;63694.53;;;-1.08;100.00
48624;BME280;75490;45.802;16.114;2024-02-14T06:02:03;63690.34;;;-1.07;100.00
48624;BME280;75490;45.802;16.114;2024-02-14T06:04:32;63699.38;;;-1.00;100.00
48624;BME280;75490;45.802;16.114;2024-02-14T06:06:58;63697.78;;;-1.02;100.00
48624;BME280;75490;45.802;16.114;2024-02-14T06:09:25;63696.75;;;-1.00;100.00
48624;BME280;75490;45.802;16.114;2024-02-14T06:11:52;63697.31;;;-0.97;100.00
48624;BME280;75490;45.802;16.114;2024-02-14T06:14:19;63701.53;;;-0.96;100.00
48624;BME280;75490;45.802;16.114;2024-02-14T06:16:46;63710.50;;;-0.92;100.00
48624;BME280;75490;45.802;16.114;2024-02-14T06:19:13;63704.19;;;-0.93;100.00
48624;BME280;75490;45.802;16.114;2024-02-14T06:21:40;63708.44;;;-0.89;100.00
48624;BME280;75490;45.802;16.114;2024-02-14T06:24:07;63713.25;;;-0.85;100.00
48624;BME280;75490;45.802;16.114;2024-02-14T06:26:34;63716.97;;;-0.81;100.00
48624;BME280;75490;45.802;16.114;2024-02-14T06:29:01;63721.22;;;-0.77;100.00
48624;BME280;75490;45.802;16.114;2024-02-14T06:31:29;63732.41;;;-0.69;100.00
48624;BME280;75490;45.802;16.114;2024-02-14T06:33:55;63736.16;;;-0.63;100.00
48624;BME280;75490;45.802;16.114;2024-02-14T06:36:22;63746.84;;;-0.50;100.00
48624;BME280;75490;45.802;16.114;2024-02-14T06:38:49;63756.94;;;-0.43;100.00
48624;BME280;75490;45.802;16.114;2024-02-14T06:41:17;63749.50;;;-0.48;100.00
48624;BME280;75490;45.802;16.114;2024-02-14T06:43:44;63771.25;;;-0.34;100.00
48624;BME280;75490;45.802;16.114;2024-02-14T06:46:10;63773.47;;;-0.27;100.00
48624;BME280;75490;45.802;16.114;2024-02-14T06:48:37;63778.78;;;-0.22;100.00
48624;BME280;75490;45.802;16.114;2024-02-14T06:51:06;63785.75;;;-0.13;100.00
48624;BME280;75490;45.802;16.114;2024-02-14T06:53:33;63792.13;;;-0.10;100.00
48624;BME280;75490;45.802;16.114;2024-02-14T06:56:01;63792.72;;;-0.04;100.00
48624;BME280;75490;45.802;16.114;2024-02-14T06:58:27;63804.31;;;-0.03;100.00
48624;BME280;75490;45.802;16.114;2024-02-14T07:00:54;63805.50;;;0.08;100.00
48624;BME280;75490;45.802;16.114;2024-02-14T07:03:24;63815.59;;;0.15;100.00
48624;BME280;75490;45.802;16.114;2024-02-14T07:05:51;63829.97;;;0.26;100.00
48624;BME280;75490;45.802;16.114;2024-02-14T07:08:33;63849.63;;;0.38;100.00
48624;BME280;75490;45.802;16.114;2024-02-14T07:11:00;63864.09;;;0.59;100.00
48624;BME280;75490;45.802;16.114;2024-02-14T07:13:29;63880.09;;;0.74;100.00
48624;BME280;75490;45.802;16.114;2024-02-14T07:15:59;63895.56;;;0.86;100.00
48624;BME280;75490;45.802;16.114;2024-02-14T07:18:26;63919.66;;;1.17;100.00
48624;BME280;75490;45.802;16.114;2024-02-14T07:20:53;63983.13;;;1.72;100.00
48624;BME280;75490;45.802;16.114;2024-02-14T07:23:21;64043.50;;;2.29;100.00
48624;BME280;75490;45.802;16.114;2024-02-14T07:25:48;64068.06;;;2.53;100.00
48624;BME280;75490;45.802;16.114;2024-02-14T07:28:15;64043.53;;;2.34;100.00
48624;BME280;75490;45.802;16.114;2024-02-14T07:30:42;64032.84;;;2.24;100.00
48624;BME280;75490;45.802;16.114;2024-02-14T07:33:09;64036.06;;;2.27;100.00
48624;BME280;75490;45.802;16.114;2024-02-14T07:35:39;64090.03;;;2.78;100.00
48624;BME280;75490;45.802;16.114;2024-02-14T07:38:06;64089.50;;;2.78;100.00
48624;BME280;75490;45.802;16.114;2024-02-14T07:40:33;64065.44;;;2.53;100.00
48624;BME280;75490;45.802;16.114;2024-02-14T07:43:00;64079.31;;;2.66;100.00
48624;BME280;75490;45.802;16.114;2024-02-14T07:45:27;64095.31;;;2.76;100.00
48624;BME280;75490;45.802;16.114;2024-02-14T07:47:54;64102.31;;;2.90;100.00
48624;BME280;75490;45.802;16.114;2024-02-14T07:50:21;64121.00;;;3.03;100.00
48624;BME280;75490;45.802;16.114;2024-02-14T07:52:50;64163.84;;;3.51;100.00
48624;BME280;75490;45.802;16.114;2024-02-14T07:55:19;64159.03;;;3.46;100.00
48624;BME280;75490;45.802;16.114;2024-02-14T07:57:49;64201.25;;;3.81;100.00
48624;BME280;75490;45.802;16.114;2024-02-14T08:00:19;64225.88;;;4.05;100.00
48624;BME280;75490;45.802;16.114;2024-02-14T08:02:49;64217.84;;;4.00;100.00
48624;BME280;75490;45.802;16.114;2024-02-14T08:05:16;64255.88;;;4.36;100.00
48624;BME280;75490;45.802;16.114;2024-02-14T08:07:44;64326.00;;;4.99;100.00
48624;BME280;75490;45.802;16.114;2024-02-14T08:10:13;64312.59;;;4.87;100.00
48624;BME280;75490;45.802;16.114;2024-02-14T08:12:46;64330.28;;;5.06;100.00
48624;BME280;75490;45.802;16.114;2024-02-14T08:15:16;64379.03;;;5.50;100.00
48624;BME280;75490;45.802;16.114;2024-02-14T08:17:43;64411.75;;;5.83;100.00
48624;BME280;75490;45.802;16.114;2024-02-14T08:20:10;64371.56;;;5.45;100.00
48624;BME280;75490;45.802;16.114;2024-02-14T08:22:37;64504.00;;;6.73;100.00
48624;BME280;75490;45.802;16.114;2024-02-14T08:25:04;64467.00;;;6.38;100.00
48624;BME280;75490;45.802;16.114;2024-02-14T08:27:41;64409.09;;;5.86;100.00
48624;BME280;75490;45.802;16.114;2024-02-14T08:30:16;64456.22;;;6.20;100.00
48624;BME280;75490;45.802;16.114;2024-02-14T08:32:48;64434.28;;;6.04;100.00
48624;BME280;75490;45.802;16.114;2024-02-14T08:35:15;64456.81;;;6.28;100.00
48624;BME280;75490;45.802;16.114;2024-02-14T08:37:45;64426.78;;;5.97;100.00
48624;BME280;75490;45.802;16.114;2024-02-14T08:40:15;64447.13;;;6.17;100.00
48624;BME280;75490;45.802;16.114;2024-02-14T08:42:42;64495.41;;;6.62;100.00
48624;BME280;75490;45.802;16.114;2024-02-14T08:45:09;64508.28;;;6.74;100.00
48624;BME280;75490;45.802;16.114;2024-02-14T08:47:37;64593.06;;;7.55;100.00
48624;BME280;75490;45.802;16.114;2024-02-14T08:50:04;64698.38;;;8.54;100.00
48624;BME280;75490;45.802;16.114;2024-02-14T08:52:31;64610.25;;;7.71;100.00
48624;BME280;75490;45.802;16.114;2024-02-14T08:54:59;64658.09;;;8.18;100.00
48624;BME280;75490;45.802;16.114;2024-02-14T08:57:26;64635.00;;;7.99;100.00
48624;BME280;75490;45.802;16.114;2024-02-14T08:59:53;64594.69;;;7.56;100.00
48624;BME280;75490;45.802;16.114;2024-02-14T09:02:20;64606.00;;;7.72;100.00
48624;BME280;75490;45.802;16.114;2024-02-14T09:04:49;64630.69;;;7.90;100.00
48624;BME280;75490;45.802;16.114;2024-02-14T09:07:17;64708.03;;;8.63;100.00
48624;BME280;75490;45.802;16.114;2024-02-14T09:09:44;64618.88;;;7.84;100.00
48624;BME280;75490;45.802;16.114;2024-02-14T09:12:14;64647.88;;;8.09;100.00
48624;BME280;75490;45.802;16.114;2024-02-14T09:14:41;64660.75;;;8.18;100.00
48624;BME280;75490;45.802;16.114;2024-02-14T09:17:08;64691.41;;;8.50;100.00
48624;BME280;75490;45.802;16.114;2024-02-14T09:19:35;64729.53;;;8.83;100.00
48624;BME280;75490;45.802;16.114;2024-02-14T09:22:03;64691.91;;;8.48;100.00
48624;BME280;75490;45.802;16.114;2024-02-14T09:24:33;64705.34;;;8.58;100.00
48624;BME280;75490;45.802;16.114;2024-02-14T09:27:00;64712.91;;;8.73;100.00
48624;BME280;75490;45.802;16.114;2024-02-14T09:29:29;64703.22;;;8.59;100.00
48624;BME280;75490;45.802;16.114;2024-02-14T09:31:57;64763.41;;;9.15;100.00
48624;BME280;75490;45.802;16.114;2024-02-14T09:34:36;64745.13;;;8.98;100.00
48624;BME280;75490;45.802;16.114;2024-02-14T09:37:03;64787.59;;;9.38;100.00
48624;BME280;75490;45.802;16.114;2024-02-14T09:39:32;64787.59;;;9.38;100.00
48624;BME280;75490;45.802;16.114;2024-02-14T09:42:09;64766.09;;;9.18;100.00
48624;BME280;75490;45.802;16.114;2024-02-14T09:44:37;64760.22;;;9.15;100.00
48624;BME280;75490;45.802;16.114;2024-02-14T09:47:07;64761.25;;;9.16;100.00
48624;BME280;75490;45.802;16.114;2024-02-14T09:49:37;64793.53;;;9.46;100.00
48624;BME280;75490;45.802;16.114;2024-02-14T09:52:06;64807.00;;;9.61;100.00
48624;BME280;75490;45.802;16.114;2024-02-14T09:54:38;64780.09;;;9.36;100.00
48624;BME280;75490;45.802;16.114;2024-02-14T09:57:06;64797.28;;;9.47;100.00
48624;BME280;75490;45.802;16.114;2024-02-14T09:59:33;64800.50;;;9.50;100.00
48624;BME280;75490;45.802;16.114;2024-02-14T10:02:01;64813.97;;;9.66;100.00
48624;BME280;75490;45.802;16.114;2024-02-14T10:04:28;64818.28;;;9.70;100.00
48624;BME280;75490;45.802;16.114;2024-02-14T10:06:56;64847.31;;;9.99;100.00
48624;BME280;75490;45.802;16.114;2024-02-14T10:09:30;64885.00;;;10.32;100.00
48624;BME280;75490;45.802;16.114;2024-02-14T10:11:57;64869.94;;;10.21;100.00
48624;BME280;75490;45.802;16.114;2024-02-14T10:14:24;64874.25;;;10.27;100.00
48624;BME280;75490;45.802;16.114;2024-02-14T10:16:54;64888.25;;;10.36;96.43
48624;BME280;75490;45.802;16.114;2024-02-14T10:19:21;64885.00;;;10.32;92.56
48624;BME280;75490;45.802;16.114;2024-02-14T10:22:01;64892.00;;;10.39;94.73
48624;BME280;75490;45.802;16.114;2024-02-14T10:24:32;64927.00;;;10.75;89.72
48624;BME280;75490;45.802;16.114;2024-02-14T10:27:32;64934.53;;;10.84;82.95
48624;BME280;75490;45.802;16.114;2024-02-14T10:30:09;64927.00;;;10.72;76.48
48624;BME280;75490;45.802;16.114;2024-02-14T10:32:54;64928.06;;;10.73;75.61
48624;BME280;75490;45.802;16.114;2024-02-14T10:35:44;64931.84;;;10.79;68.44
48624;BME280;75490;45.802;16.114;2024-02-14T10:38:12;64939.41;;;10.91;68.67
48624;BME280;75490;45.802;16.114;2024-02-14T10:40:41;64943.16;;;10.87;71.71
48624;BME280;75490;45.802;16.114;2024-02-14T10:43:09;64923.75;;;10.64;68.71
48624;BME280;75490;45.802;16.114;2024-02-14T10:45:49;64940.44;;;10.82;72.20
48624;BME280;75490;45.802;16.114;2024-02-14T10:48:34;64948.53;;;10.92;68.95
48624;BME280;75490;45.802;16.114;2024-02-14T10:54:41;64967.38;;;11.13;65.86
48624;BME280;75490;45.802;16.114;2024-02-14T10:57:45;64969.50;;;11.10;65.99
48624;BME280;75490;45.802;16.114;2024-02-14T11:00:31;64941.50;;;10.83;65.10
48624;BME280;75490;45.802;16.114;2024-02-14T11:03:19;64973.31;;;11.16;65.71
48624;BME280;75490;45.802;16.114;2024-02-14T11:06:01;64973.84;;;11.19;63.77
48624;BME280;75490;45.802;16.114;2024-02-14T11:08:32;64992.16;;;11.33;64.41
48624;BME280;75490;45.802;16.114;2024-02-14T11:11:11;64993.22;;;11.37;61.46
48624;BME280;75490;45.802;16.114;2024-02-14T11:13:41;64995.91;;;11.37;62.18
48624;BME280;75490;45.802;16.114;2024-02-14T11:16:37;64988.91;;;11.28;62.95
48624;BME280;75490;45.802;16.114;2024-02-14T11:19:12;64998.63;;;11.42;63.47
48624;BME280;75490;45.802;16.114;2024-02-14T11:21:46;65006.69;;;11.45;63.32
48624;BME280;75490;45.802;16.114;2024-02-14T11:24:46;64972.75;;;11.13;61.97
48624;BME280;75490;45.802;16.114;2024-02-14T11:27:13;64971.16;;;11.14;62.64
48624;BME280;75490;45.802;16.114;2024-02-14T11:29:55;64979.78;;;11.27;65.23
48624;BME280;75490;45.802;16.114;2024-02-14T11:32:22;64976.53;;;11.19;64.60
48624;BME280;75490;45.802;16.114;2024-02-14T11:34:58;65013.72;;;11.56;64.53
48624;BME280;75490;45.802;16.114;2024-02-14T11:37:33;65018.03;;;11.60;63.00
48624;BME280;75490;45.802;16.114;2024-02-14T11:40:14;65023.41;;;11.60;62.51
48624;BME280;75490;45.802;16.114;2024-02-14T11:42:50;65051.97;;;11.90;63.53
48624;BME280;75490;45.802;16.114;2024-02-14T11:45:42;65035.78;;;11.74;60.41
48624;BME280;75490;45.802;16.114;2024-02-14T11:48:13;65023.41;;;11.65;60.96
48624;BME280;75490;45.802;16.114;2024-02-14T11:50:45;65023.94;;;11.61;59.34
48624;BME280;75490;45.802;16.114;2024-02-14T11:53:14;65035.25;;;11.71;60.29
48624;BME280;75490;45.802;16.114;2024-02-14T11:55:46;65037.44;;;11.79;59.85
48624;BME280;75490;45.802;16.114;2024-02-14T11:58:26;65029.88;;;11.71;59.87
48624;BME280;75490;45.802;16.114;2024-02-14T12:01:05;65052.50;;;11.93;59.91
48624;BME280;75490;45.802;16.114;2024-02-14T12:03:33;65038.50;;;11.77;60.00
48624;BME280;75490;45.802;16.114;2024-02-14T12:06:02;65054.69;;;11.95;58.51
48624;BME280;75490;45.802;16.114;2024-02-14T12:08:32;65046.06;;;11.92;58.02
48624;BME280;75490;45.802;16.114;2024-02-14T12:10:59;65089.72;;;12.25;58.61
48624;BME280;75490;45.802;16.114;2024-02-14T12:13:25;65035.81;;;11.77;57.05
48624;BME280;75490;45.802;16.114;2024-02-14T12:15:53;65068.69;;;12.08;57.70
48624;BME280;75490;45.802;16.114;2024-02-14T12:18:20;65084.84;;;12.23;57.08
48624;BME280;75490;45.802;16.114;2024-02-14T12:20:47;65060.06;;;12.00;55.29
48624;BME280;75490;45.802;16.114;2024-02-14T12:23:19;65062.78;;;12.02;55.56
48624;BME280;75490;45.802;16.114;2024-02-14T12:25:46;65068.16;;;12.07;54.81
48624;BME280;75490;45.802;16.114;2024-02-14T12:28:18;65073.00;;;12.12;53.16
48624;BME280;75490;45.802;16.114;2024-02-14T12:30:46;65067.06;;;12.06;55.48
48624;BME280;75490;45.802;16.114;2024-02-14T12:33:15;65043.91;;;11.85;55.32
48624;BME280;75490;45.802;16.114;2024-02-14T12:35:46;65087.00;;;12.23;55.73
48624;BME280;75490;45.802;16.114;2024-02-14T12:38:19;65061.16;;;12.01;54.02
48624;BME280;75490;45.802;16.114;2024-02-14T12:40:51;65074.09;;;12.13;54.36
48624;BME280;75490;45.802;16.114;2024-02-14T12:43:45;65064.91;;;11.99;54.16
48624;BME280;75490;45.802;16.114;2024-02-14T12:46:12;65062.22;;;12.02;54.18
48624;BME280;75490;45.802;16.114;2024-02-14T12:48:39;65061.69;;;11.99;53.11
48624;BME280;75490;45.802;16.114;2024-02-14T12:51:09;65053.06;;;11.96;53.12
48624;BME280;75490;45.802;16.114;2024-02-14T12:53:36;65057.34;;;11.95;54.15
48624;BME280;75490;45.802;16.114;2024-02-14T12:56:03;65060.59;;;12.00;52.86
48624;BME280;75490;45.802;16.114;2024-02-14T12:58:32;65063.81;;;12.03;53.21
48624;BME280;75490;45.802;16.114;2024-02-14T13:00:59;65091.88;;;12.30;55.15